createdAt,value
2017-10-26T00:00:25.414Z,355.3
2017-10-26T00:01:26.129Z,346.1
2017-10-26T00:02:26.852Z,305.5
2017-10-26T00:03:27.939Z,331.4
2017-10-26T00:04:28.669Z,358.7
2017-10-26T00:05:29.392Z,341.9
2017-10-26T00:06:30.189Z,339.2
2017-10-26T00:07:30.922Z,356.7
2017-10-26T00:08:31.848Z,342.5
2017-10-26T00:09:32.642Z,362.5
2017-10-26T00:10:33.379Z,328.0
2017-10-26T00:11:34.186Z,340.2
2017-10-26T00:12:34.985Z,338.0
2017-10-26T00:13:35.912Z,306.4
2017-10-26T00:14:36.733Z,343.3
2017-10-26T00:15:37.506Z,325.3
2017-10-26T00:16:38.305Z,368.2
2017-10-26T00:17:39.032Z,341.8
2017-10-26T00:18:39.883Z,342.6
2017-10-26T00:19:40.610Z,343.0
2017-10-26T00:20:41.352Z,342.9
2017-10-26T00:21:42.088Z,344.3
2017-10-26T00:22:42.882Z,351.1
2017-10-26T00:23:43.713Z,355.1
2017-10-26T00:24:44.448Z,351.7
2017-10-26T00:25:45.239Z,344.3
2017-10-26T00:26:45.972Z,317.9
2017-10-26T00:27:46.702Z,329.2
2017-10-26T00:28:47.480Z,364.1
2017-10-26T00:29:48.284Z,331.9
2017-10-26T00:30:49.017Z,330.0
2017-10-26T00:31:49.794Z,331.6
2017-10-26T00:32:50.534Z,343.3
2017-10-26T00:33:51.325Z,359.4
2017-10-26T00:34:52.144Z,354.6
2017-10-26T00:35:52.938Z,329.4
2017-10-26T00:36:53.722Z,317.1
2017-10-26T00:37:54.494Z,318.2
2017-10-26T00:38:55.218Z,341.6
2017-10-26T00:39:55.956Z,325.4
2017-10-26T00:40:56.749Z,343.7
2017-10-26T00:41:57.543Z,349.9
2017-10-26T00:42:58.273Z,331.5
2017-10-26T00:43:59.061Z,312.7
2017-10-26T00:44:59.863Z,297.4
2017-10-26T00:46:00.691Z,318.0
2017-10-26T00:47:01.496Z,338.6
2017-10-26T00:48:02.238Z,300.5
2017-10-26T00:49:02.979Z,323.5
2017-10-26T00:50:03.749Z,331.1
2017-10-26T00:51:04.833Z,316.5
2017-10-26T00:52:05.560Z,285.3
2017-10-26T00:53:06.315Z,283.9
2017-10-26T00:54:07.049Z,328.5
2017-10-26T00:55:07.788Z,314.4
2017-10-26T00:56:08.560Z,303.8
2017-10-26T00:57:09.291Z,306.1
2017-10-26T00:58:10.033Z,311.5
2017-10-26T00:59:10.839Z,293.0
2017-10-26T01:00:11.574Z,300.2
2017-10-26T01:01:12.443Z,307.0
2017-10-26T01:02:13.165Z,314.1
2017-10-26T01:03:13.901Z,299.1
2017-10-26T01:04:14.693Z,314.7
2017-10-26T01:05:15.494Z,302.2
2017-10-26T01:06:16.278Z,280.0
2017-10-26T01:07:17.081Z,308.3
2017-10-26T01:08:17.883Z,309.7
2017-10-26T01:09:18.623Z,280.8
2017-10-26T01:10:19.400Z,315.3
2017-10-26T01:11:20.289Z,304.8
2017-10-26T01:12:21.070Z,300.0
2017-10-26T01:13:21.877Z,299.6
2017-10-26T01:14:22.682Z,267.9
2017-10-26T01:15:23.353Z,273.7
2017-10-26T01:16:24.201Z,278.5
2017-10-26T01:17:24.939Z,267.6
2017-10-26T01:18:25.734Z,278.2
2017-10-26T01:19:26.558Z,258.2
2017-10-26T01:20:27.286Z,243.2
2017-10-26T01:21:28.411Z,270.9
2017-10-26T01:22:29.153Z,251.0
2017-10-26T01:23:29.972Z,247.0
2017-10-26T01:24:30.701Z,274.6
2017-10-26T01:25:31.499Z,270.5
2017-10-26T01:26:32.338Z,263.5
2017-10-26T01:27:33.065Z,263.0
2017-10-26T01:28:33.803Z,251.5
2017-10-26T01:29:34.545Z,250.5
2017-10-26T01:30:35.270Z,285.7
2017-10-26T01:31:36.113Z,270.7
2017-10-26T01:32:36.851Z,272.7
2017-10-26T01:33:37.583Z,262.5
2017-10-26T01:34:38.308Z,246.8
2017-10-26T01:35:39.058Z,257.1
2017-10-26T01:36:39.820Z,270.8
2017-10-26T01:37:40.563Z,275.6
2017-10-26T01:38:41.292Z,252.6
2017-10-26T01:39:42.096Z,279.3
2017-10-26T01:40:42.909Z,278.9
2017-10-26T01:41:43.643Z,297.3
2017-10-26T01:42:44.379Z,283.0
2017-10-26T01:43:45.113Z,276.0
2017-10-26T01:44:45.880Z,323.9
2017-10-26T01:45:46.688Z,291.9
2017-10-26T01:46:47.512Z,271.7
2017-10-26T01:47:48.240Z,284.2
2017-10-26T01:48:48.979Z,287.6
2017-10-26T01:49:49.758Z,272.3
2017-10-26T01:50:50.499Z,267.2
2017-10-26T01:51:51.343Z,291.1
2017-10-26T01:52:52.146Z,288.0
2017-10-26T01:53:52.948Z,272.3
2017-10-26T01:54:53.681Z,295.3
2017-10-26T01:55:54.490Z,285.2
2017-10-26T01:56:55.268Z,289.0
2017-10-26T01:57:56.104Z,311.6
2017-10-26T01:58:56.975Z,294.1
2017-10-26T01:59:57.757Z,292.8
2017-10-26T02:00:58.492Z,294.1
2017-10-26T02:01:59.596Z,303.4
2017-10-26T02:03:00.348Z,292.9
2017-10-26T02:04:01.112Z,318.1
2017-10-26T02:05:01.878Z,319.8
2017-10-26T02:06:02.609Z,299.9
2017-10-26T02:07:03.328Z,335.2
2017-10-26T02:08:04.074Z,363.7
2017-10-26T02:09:04.904Z,341.0
2017-10-26T02:10:05.693Z,332.8
2017-10-26T02:11:06.442Z,342.2
2017-10-26T02:12:07.243Z,340.7
2017-10-26T02:13:07.959Z,294.2
2017-10-26T02:14:08.680Z,288.2
2017-10-26T02:15:09.479Z,299.0
2017-10-26T02:16:10.221Z,287.4
2017-10-26T02:17:11.008Z,309.2
2017-10-26T02:18:11.743Z,305.9
2017-10-26T02:19:12.482Z,303.1
2017-10-26T02:20:13.237Z,326.9
2017-10-26T02:21:14.089Z,325.0
2017-10-26T02:22:14.824Z,321.4
2017-10-26T02:23:15.609Z,319.4
2017-10-26T02:24:16.349Z,354.8
2017-10-26T02:25:17.152Z,332.5
2017-10-26T02:26:17.958Z,302.4
2017-10-26T02:27:18.689Z,317.5
2017-10-26T02:28:19.442Z,320.3
2017-10-26T02:29:20.167Z,331.1
2017-10-26T02:30:20.888Z,350.1
2017-10-26T02:31:21.717Z,324.9
2017-10-26T02:32:22.479Z,361.2
2017-10-26T02:33:23.224Z,362.7
2017-10-26T02:34:23.956Z,336.8
2017-10-26T02:35:24.691Z,339.4
2017-10-26T02:36:25.802Z,340.0
2017-10-26T02:37:26.537Z,380.0
2017-10-26T02:38:27.352Z,363.3
2017-10-26T02:39:28.145Z,339.5
2017-10-26T02:40:28.870Z,347.8
2017-10-26T02:41:29.903Z,329.0
2017-10-26T02:42:30.717Z,381.8
2017-10-26T02:43:31.452Z,352.0
2017-10-26T02:44:32.220Z,343.4
2017-10-26T02:45:32.973Z,410.1
2017-10-26T02:46:34.119Z,377.2
2017-10-26T02:47:34.937Z,375.6
2017-10-26T02:48:35.669Z,329.8
2017-10-26T02:49:36.396Z,356.3
2017-10-26T02:50:37.132Z,384.7
2017-10-26T02:51:37.862Z,336.9
2017-10-26T02:52:38.588Z,324.1
2017-10-26T02:53:39.317Z,365.1
2017-10-26T02:54:40.052Z,321.2
2017-10-26T02:55:40.828Z,344.3
2017-10-26T02:56:41.626Z,326.2
2017-10-26T02:57:42.357Z,364.6
2017-10-26T02:58:43.090Z,340.3
2017-10-26T02:59:43.876Z,374.7
2017-10-26T03:00:44.901Z,333.2
2017-10-26T03:01:45.652Z,324.2
2017-10-26T03:02:46.438Z,357.5
2017-10-26T03:03:47.242Z,363.9
2017-10-26T03:04:48.055Z,356.1
2017-10-26T03:05:48.902Z,397.8
2017-10-26T03:06:49.704Z,336.1
2017-10-26T03:07:50.442Z,369.6
2017-10-26T03:08:51.236Z,403.9
2017-10-26T03:09:51.973Z,375.9
2017-10-26T03:10:52.806Z,372.1
2017-10-26T03:11:53.593Z,359.8
2017-10-26T03:12:54.377Z,380.2
2017-10-26T03:13:55.176Z,353.0
2017-10-26T03:14:55.906Z,365.9
2017-10-26T03:15:56.740Z,338.0
2017-10-26T03:16:57.467Z,364.1
2017-10-26T03:17:58.205Z,361.1
2017-10-26T03:18:58.944Z,426.2
2017-10-26T03:19:59.656Z,387.5
2017-10-26T03:21:00.792Z,369.1
2017-10-26T03:22:01.531Z,397.5
2017-10-26T03:23:02.278Z,391.2
2017-10-26T03:24:03.066Z,387.6
2017-10-26T03:25:03.858Z,418.6
2017-10-26T03:26:04.736Z,369.1
2017-10-26T03:27:05.530Z,371.8
2017-10-26T03:28:06.336Z,348.8
2017-10-26T03:29:07.151Z,392.6
2017-10-26T03:30:07.882Z,400.1
2017-10-26T03:31:08.722Z,366.3
2017-10-26T03:32:09.531Z,376.4
2017-10-26T03:33:10.276Z,397.0
2017-10-26T03:34:11.003Z,372.2
2017-10-26T03:35:11.822Z,401.1
2017-10-26T03:36:12.597Z,420.8
2017-10-26T03:37:13.335Z,421.0
2017-10-26T03:38:14.071Z,368.7
2017-10-26T03:39:14.816Z,365.0
2017-10-26T03:40:15.500Z,344.6
2017-10-26T03:41:16.232Z,373.7
2017-10-26T03:42:17.039Z,322.7
2017-10-26T03:43:17.776Z,361.6
2017-10-26T03:44:18.506Z,345.2
2017-10-26T03:45:19.311Z,344.8
2017-10-26T03:46:20.041Z,389.0
2017-10-26T03:47:20.804Z,374.5
2017-10-26T03:48:21.568Z,334.8
2017-10-26T03:49:22.316Z,365.0
2017-10-26T03:50:23.119Z,374.6
2017-10-26T03:51:23.991Z,357.0
2017-10-26T03:52:24.772Z,350.7
2017-10-26T03:53:25.509Z,406.6
2017-10-26T03:54:26.239Z,372.5
2017-10-26T03:55:27.043Z,371.3
2017-10-26T03:56:27.848Z,385.6
2017-10-26T03:57:28.624Z,382.7
2017-10-26T03:58:29.424Z,354.1
2017-10-26T03:59:30.161Z,361.5
2017-10-26T04:00:30.947Z,379.3
2017-10-26T04:01:31.767Z,366.4
2017-10-26T04:02:32.693Z,381.6
2017-10-26T04:03:33.410Z,401.0
2017-10-26T04:04:34.218Z,416.9
2017-10-26T04:05:34.938Z,408.0
2017-10-26T04:06:35.671Z,371.7
2017-10-26T04:07:36.490Z,366.2
2017-10-26T04:08:37.217Z,375.5
2017-10-26T04:09:38.027Z,369.2
2017-10-26T04:10:38.790Z,375.9
2017-10-26T04:11:39.517Z,388.4
2017-10-26T04:12:40.298Z,362.8
2017-10-26T04:13:41.020Z,357.3
2017-10-26T04:14:41.740Z,340.7
2017-10-26T04:15:42.530Z,370.5
2017-10-26T04:16:43.342Z,357.6
2017-10-26T04:17:44.416Z,339.0
2017-10-26T04:18:45.155Z,385.6
2017-10-26T04:19:45.931Z,393.5
2017-10-26T04:20:46.653Z,377.9
2017-10-26T04:21:47.386Z,335.0
2017-10-26T04:22:48.281Z,332.6
2017-10-26T04:23:49.059Z,342.3
2017-10-26T04:24:49.793Z,340.4
2017-10-26T04:25:50.602Z,354.5
2017-10-26T04:26:51.327Z,331.1
2017-10-26T04:27:52.458Z,314.9
2017-10-26T04:28:53.197Z,333.4
2017-10-26T04:29:53.928Z,399.4
2017-10-26T04:30:54.656Z,351.9
2017-10-26T04:31:55.391Z,358.1
2017-10-26T04:32:56.226Z,326.0
2017-10-26T04:33:56.970Z,319.2
2017-10-26T04:34:57.758Z,308.2
2017-10-26T04:35:58.508Z,307.8
2017-10-26T04:36:59.234Z,294.1
2017-10-26T04:38:00.021Z,297.7
2017-10-26T04:39:00.808Z,299.3
2017-10-26T04:40:01.548Z,333.2
2017-10-26T04:41:02.322Z,327.2
2017-10-26T04:42:03.041Z,348.0
2017-10-26T04:43:03.768Z,325.3
2017-10-26T04:44:04.497Z,306.3
2017-10-26T04:45:05.279Z,327.6
2017-10-26T04:46:06.078Z,335.3
2017-10-26T04:47:06.829Z,294.6
2017-10-26T04:48:07.601Z,294.6
2017-10-26T04:49:08.336Z,295.0
2017-10-26T04:50:09.064Z,292.2
2017-10-26T04:51:09.841Z,304.1
2017-10-26T04:52:10.629Z,286.3
2017-10-26T04:53:11.421Z,304.4
2017-10-26T04:54:12.204Z,311.5
2017-10-26T04:55:13.353Z,329.4
2017-10-26T04:56:14.173Z,307.4
2017-10-26T04:57:14.982Z,303.8
2017-10-26T04:58:15.778Z,373.1
2017-10-26T04:59:16.581Z,325.6
2017-10-26T05:00:17.670Z,347.8
2017-10-26T05:01:18.494Z,340.8
2017-10-26T05:02:19.279Z,322.6
2017-10-26T05:03:20.005Z,323.7
2017-10-26T05:04:20.759Z,339.7
2017-10-26T05:05:21.552Z,366.4
2017-10-26T05:06:22.278Z,320.2
2017-10-26T05:07:23.076Z,310.4
2017-10-26T05:08:23.813Z,318.6
2017-10-26T05:09:24.538Z,338.0
2017-10-26T05:10:25.686Z,339.0
2017-10-26T05:11:26.454Z,330.4
2017-10-26T05:12:27.193Z,363.7
2017-10-26T05:13:27.932Z,336.7
2017-10-26T05:14:28.658Z,340.4
2017-10-26T05:15:29.440Z,362.1
2017-10-26T05:16:30.242Z,331.7
2017-10-26T05:17:31.041Z,352.1
2017-10-26T05:18:31.818Z,364.2
2017-10-26T05:19:32.542Z,361.7
2017-10-26T05:20:33.322Z,346.3
2017-10-26T05:21:34.074Z,356.5
2017-10-26T05:22:34.857Z,371.7
2017-10-26T05:23:35.592Z,356.1
2017-10-26T05:24:36.311Z,349.7
2017-10-26T05:25:37.043Z,347.8
2017-10-26T05:26:37.839Z,332.6
2017-10-26T05:27:38.582Z,328.5
2017-10-26T05:28:39.319Z,321.8
2017-10-26T05:29:40.121Z,324.8
2017-10-26T05:30:40.953Z,345.3
2017-10-26T05:31:41.758Z,322.3
2017-10-26T05:32:42.525Z,292.9
2017-10-26T05:33:43.299Z,377.6
2017-10-26T05:34:44.053Z,307.3
2017-10-26T05:35:44.898Z,306.5
2017-10-26T05:36:45.692Z,313.5
2017-10-26T05:37:46.423Z,303.1
2017-10-26T05:38:47.188Z,325.9
2017-10-26T05:39:47.932Z,312.4
2017-10-26T05:40:48.761Z,320.1
2017-10-26T05:41:49.495Z,325.8
2017-10-26T05:42:50.277Z,349.0
2017-10-26T05:43:51.013Z,313.9
2017-10-26T05:44:51.820Z,301.2
2017-10-26T05:45:52.642Z,298.5
2017-10-26T05:46:53.369Z,297.6
2017-10-26T05:47:54.170Z,293.2
2017-10-26T05:48:54.988Z,323.1
2017-10-26T05:49:55.724Z,325.2
2017-10-26T05:50:56.554Z,318.3
2017-10-26T05:51:57.292Z,350.3
2017-10-26T05:52:58.076Z,343.3
2017-10-26T05:53:58.803Z,291.1
2017-10-26T05:54:59.527Z,300.4
2017-10-26T05:56:00.252Z,312.0
2017-10-26T05:57:00.988Z,333.6
2017-10-26T05:58:01.803Z,381.2
2017-10-26T05:59:02.541Z,326.0
2017-10-26T06:00:03.278Z,384.7
2017-10-26T06:01:04.023Z,362.3
2017-10-26T06:02:04.827Z,324.1
2017-10-26T06:03:05.570Z,308.6
2017-10-26T06:04:06.379Z,307.8
2017-10-26T06:05:07.122Z,335.0
2017-10-26T06:06:07.948Z,323.9
2017-10-26T06:07:08.693Z,328.3
2017-10-26T06:08:09.429Z,307.8
2017-10-26T06:09:10.163Z,322.0
2017-10-26T06:10:10.901Z,297.2
2017-10-26T06:11:12.036Z,325.5
2017-10-26T06:12:12.774Z,336.1
2017-10-26T06:13:13.508Z,329.7
2017-10-26T06:14:14.249Z,332.1
2017-10-26T06:15:15.051Z,333.3
2017-10-26T06:16:16.136Z,329.6
2017-10-26T06:17:16.882Z,347.4
2017-10-26T06:18:17.638Z,348.5
2017-10-26T06:19:18.430Z,319.1
2017-10-26T06:20:19.228Z,331.2
2017-10-26T06:21:20.088Z,330.6
2017-10-26T06:22:20.830Z,329.4
2017-10-26T06:23:21.553Z,327.8
2017-10-26T06:24:22.299Z,302.2
2017-10-26T06:25:23.039Z,326.4
2017-10-26T06:26:24.172Z,315.9
2017-10-26T06:27:24.953Z,330.2
2017-10-26T06:28:25.687Z,318.4
2017-10-26T06:29:26.437Z,320.1
2017-10-26T06:30:27.231Z,333.2
2017-10-26T06:31:28.443Z,318.0
2017-10-26T06:32:29.176Z,303.8
2017-10-26T06:33:29.891Z,311.3
2017-10-26T06:34:30.709Z,313.3
2017-10-26T06:35:31.471Z,307.9
2017-10-26T06:36:32.259Z,316.5
2017-10-26T06:37:33.043Z,318.0
2017-10-26T06:38:33.830Z,320.4
2017-10-26T06:39:34.659Z,310.8
2017-10-26T06:40:35.391Z,310.1
2017-10-26T06:41:36.601Z,313.4
2017-10-26T06:42:37.383Z,292.2
2017-10-26T06:43:38.119Z,321.1
2017-10-26T06:44:38.854Z,303.8
2017-10-26T06:45:39.667Z,319.2
2017-10-26T06:46:40.408Z,273.1
2017-10-26T06:47:41.139Z,282.7
2017-10-26T06:48:41.891Z,306.4
2017-10-26T06:49:42.731Z,302.5
2017-10-26T06:50:43.547Z,286.7
2017-10-26T06:51:44.282Z,281.7
2017-10-26T06:52:45.023Z,296.7
2017-10-26T06:53:45.748Z,286.9
2017-10-26T06:54:46.498Z,279.8
2017-10-26T06:55:47.341Z,288.6
2017-10-26T06:56:48.142Z,279.0
2017-10-26T06:57:48.999Z,261.8
2017-10-26T06:58:50.935Z,279.9
2017-10-26T06:59:51.824Z,268.7
2017-10-26T07:00:52.583Z,276.4
2017-10-26T07:01:53.318Z,275.6
2017-10-26T07:02:54.176Z,265.1
2017-10-26T07:03:54.981Z,284.6
2017-10-26T07:04:55.774Z,283.3
2017-10-26T07:05:56.593Z,284.7
2017-10-26T07:06:57.398Z,271.2
2017-10-26T07:07:58.181Z,278.2
2017-10-26T07:08:58.936Z,259.6
2017-10-26T07:09:59.673Z,248.8
2017-10-26T07:11:00.470Z,263.8
2017-10-26T07:12:01.213Z,246.6
2017-10-26T07:13:02.054Z,244.7
2017-10-26T07:14:02.885Z,239.6
2017-10-26T07:15:03.573Z,226.5
2017-10-26T07:16:04.322Z,223.5
2017-10-26T07:17:05.078Z,224.9
2017-10-26T07:18:06.233Z,198.3
2017-10-26T07:19:06.973Z,200.1
2017-10-26T07:20:07.697Z,197.2
2017-10-26T07:21:08.448Z,190.0
2017-10-26T07:22:09.199Z,193.5
2017-10-26T07:23:10.007Z,188.1
2017-10-26T07:24:10.812Z,180.0
2017-10-26T07:25:11.562Z,159.8
2017-10-26T07:26:12.278Z,161.5
2017-10-26T07:27:13.086Z,183.4
2017-10-26T07:28:13.866Z,170.1
2017-10-26T07:29:14.686Z,168.7
2017-10-26T07:30:15.458Z,158.7
2017-10-26T07:31:16.188Z,157.5
2017-10-26T07:32:16.994Z,161.5
2017-10-26T07:33:17.737Z,169.1
2017-10-26T07:34:18.528Z,159.7
2017-10-26T07:35:19.342Z,160.5
2017-10-26T07:36:20.098Z,168.3
2017-10-26T07:37:20.889Z,161.1
2017-10-26T07:38:21.693Z,171.5
2017-10-26T07:39:22.515Z,159.2
2017-10-26T07:40:23.573Z,153.7
2017-10-26T07:41:24.383Z,143.7
2017-10-26T07:42:25.196Z,135.2
2017-10-26T07:43:26.009Z,155.4
2017-10-26T07:44:26.811Z,153.2
2017-10-26T07:45:27.844Z,137.2
2017-10-26T07:46:28.655Z,145.8
2017-10-26T07:47:29.390Z,131.0
2017-10-26T07:48:30.144Z,131.9
2017-10-26T07:49:30.963Z,133.2
2017-10-26T07:50:32.000Z,126.1
2017-10-26T07:51:32.808Z,122.9
2017-10-26T07:52:33.548Z,117.3
2017-10-26T07:53:34.291Z,113.3
2017-10-26T07:54:35.029Z,111.7
2017-10-26T07:55:35.822Z,119.0
2017-10-26T07:56:36.574Z,113.6
2017-10-26T07:57:37.312Z,109.9
2017-10-26T07:58:38.052Z,107.4
2017-10-26T07:59:38.808Z,103.8
2017-10-26T08:00:39.607Z,110.5
2017-10-26T08:01:40.409Z,103.9
2017-10-26T08:02:41.218Z,107.8
2017-10-26T08:03:41.961Z,105.2
2017-10-26T08:04:42.720Z,105.9
2017-10-26T08:05:43.922Z,108.9
2017-10-26T08:06:44.662Z,104.9
2017-10-26T08:07:45.398Z,99.7
2017-10-26T08:08:46.198Z,95.7
2017-10-26T08:09:46.942Z,101.9
2017-10-26T08:10:47.777Z,104.8
2017-10-26T08:11:48.510Z,108.7
2017-10-26T08:12:49.238Z,97.5
2017-10-26T08:13:49.972Z,103.3
2017-10-26T08:14:50.722Z,98.2
2017-10-26T08:15:51.512Z,108.1
2017-10-26T08:16:52.249Z,115.2
2017-10-26T08:17:53.057Z,103.2
2017-10-26T08:18:53.789Z,110.3
2017-10-26T08:19:54.522Z,109.9
2017-10-26T08:20:55.358Z,103.1
2017-10-26T08:21:56.100Z,105.2
2017-10-26T08:22:56.917Z,104.4
2017-10-26T08:23:57.644Z,106.3
2017-10-26T08:24:58.460Z,107.2
2017-10-26T08:25:59.212Z,93.9
2017-10-26T08:26:59.955Z,98.6
2017-10-26T08:28:00.688Z,94.7
2017-10-26T08:29:01.432Z,97.8
2017-10-26T08:30:02.172Z,89.7
2017-10-26T08:31:03.009Z,88.2
2017-10-26T08:32:03.738Z,94.9
2017-10-26T08:33:04.481Z,96.8
2017-10-26T08:34:05.221Z,90.0
2017-10-26T08:35:05.970Z,101.0
2017-10-26T08:36:06.807Z,86.7
2017-10-26T08:37:07.557Z,94.9
2017-10-26T08:38:08.327Z,101.8
2017-10-26T08:39:09.055Z,91.8
2017-10-26T08:40:09.844Z,91.8
2017-10-26T08:41:10.645Z,87.9
2017-10-26T08:42:11.472Z,96.0
2017-10-26T08:43:12.287Z,96.0
2017-10-26T08:44:13.235Z,102.7
2017-10-26T08:45:14.985Z,99.6
2017-10-26T08:46:16.290Z,96.0
2017-10-26T08:47:17.082Z,93.2
2017-10-26T08:48:17.820Z,90.0
2017-10-26T08:49:18.621Z,89.3
2017-10-26T08:50:19.367Z,91.3
2017-10-26T08:51:20.228Z,93.0
2017-10-26T08:52:21.027Z,94.7
2017-10-26T08:53:21.815Z,93.4
2017-10-26T08:54:22.624Z,92.3
2017-10-26T08:55:23.433Z,95.8
2017-10-26T08:56:24.332Z,101.5
2017-10-26T08:57:25.154Z,95.0
2017-10-26T08:58:25.960Z,98.3
2017-10-26T08:59:26.773Z,102.6
2017-10-26T09:00:27.595Z,98.0
2017-10-26T09:01:28.502Z,95.2
2017-10-26T09:02:29.247Z,112.3
2017-10-26T09:03:29.993Z,107.6
2017-10-26T09:04:30.812Z,114.6
2017-10-26T09:05:31.638Z,103.8
2017-10-26T09:06:32.791Z,109.8
2017-10-26T09:07:33.523Z,99.1
2017-10-26T09:08:34.253Z,104.3
2017-10-26T09:09:35.088Z,107.9
2017-10-26T09:10:35.905Z,105.4
2017-10-26T09:11:36.738Z,98.7
2017-10-26T09:12:37.515Z,105.5
2017-10-26T09:13:38.301Z,106.1
2017-10-26T09:14:39.118Z,103.6
2017-10-26T09:15:39.863Z,98.8
2017-10-26T09:16:40.956Z,104.4
2017-10-26T09:17:41.797Z,100.8
2017-10-26T09:18:42.528Z,106.5
2017-10-26T09:19:43.272Z,102.9
2017-10-26T09:20:44.081Z,100.1
2017-10-26T09:21:44.878Z,93.8
2017-10-26T09:22:45.628Z,99.6
2017-10-26T09:23:46.455Z,102.5
2017-10-26T09:24:47.259Z,96.3
2017-10-26T09:25:48.004Z,100.1
2017-10-26T09:26:49.069Z,91.9
2017-10-26T09:27:49.859Z,85.8
2017-10-26T09:28:50.609Z,89.5
2017-10-26T09:29:51.342Z,90.6
2017-10-26T09:30:52.072Z,85.9
2017-10-26T09:31:52.806Z,85.5
2017-10-26T09:32:53.604Z,91.4
2017-10-26T09:33:54.341Z,79.4
2017-10-26T09:34:55.083Z,75.7
2017-10-26T09:35:55.902Z,85.6
2017-10-26T09:36:56.696Z,87.4
2017-10-26T09:37:57.791Z,82.5
2017-10-26T09:38:58.469Z,85.0
2017-10-26T09:39:59.265Z,87.0
2017-10-26T09:41:00.005Z,77.6
2017-10-26T09:42:00.769Z,81.0
2017-10-26T09:43:01.689Z,81.9
2017-10-26T09:44:02.435Z,78.2
2017-10-26T09:45:03.231Z,80.9
2017-10-26T09:46:03.972Z,78.3
2017-10-26T09:47:04.797Z,78.5
2017-10-26T09:48:06.331Z,82.0
2017-10-26T09:49:07.066Z,81.7
2017-10-26T09:50:07.853Z,82.4
2017-10-26T09:51:08.661Z,76.5
2017-10-26T09:52:09.391Z,76.0
2017-10-26T09:53:10.482Z,66.5
2017-10-26T09:54:11.236Z,67.1
2017-10-26T09:55:12.049Z,72.2
2017-10-26T09:56:12.834Z,76.4
2017-10-26T09:57:13.587Z,71.2
2017-10-26T09:58:14.390Z,70.0
2017-10-26T09:59:15.144Z,65.6
2017-10-26T10:00:15.972Z,60.4
2017-10-26T10:01:16.723Z,67.0
2017-10-26T10:02:17.516Z,62.9
2017-10-26T10:03:18.554Z,65.1
2017-10-26T10:04:19.383Z,58.8
2017-10-26T10:05:20.178Z,64.6
2017-10-26T10:06:20.922Z,63.6
2017-10-26T10:07:21.659Z,60.6
2017-10-26T10:08:22.461Z,63.8
2017-10-26T10:09:23.193Z,59.5
2017-10-26T10:10:23.918Z,62.9
2017-10-26T10:11:24.657Z,63.2
2017-10-26T10:12:25.388Z,58.6
2017-10-26T10:13:26.534Z,62.3
2017-10-26T10:14:27.318Z,59.6
2017-10-26T10:15:28.060Z,56.6
2017-10-26T10:16:28.797Z,56.7
2017-10-26T10:17:29.530Z,62.6
2017-10-26T10:18:30.377Z,54.0
2017-10-26T10:19:31.149Z,52.2
2017-10-26T10:20:31.954Z,55.9
2017-10-26T10:21:32.701Z,58.7
2017-10-26T10:22:33.439Z,51.0
2017-10-26T10:23:34.645Z,54.2
2017-10-26T10:24:35.375Z,54.2
2017-10-26T10:25:36.123Z,60.2
2017-10-26T10:26:36.943Z,58.4
2017-10-26T10:27:37.670Z,59.0
2017-10-26T10:28:38.458Z,59.5
2017-10-26T10:29:39.199Z,58.5
2017-10-26T10:30:39.949Z,55.6
2017-10-26T10:31:40.702Z,67.4
2017-10-26T10:32:41.505Z,59.5
2017-10-26T10:33:42.295Z,53.4
2017-10-26T10:34:43.042Z,57.7
2017-10-26T10:35:43.791Z,56.4
2017-10-26T10:36:44.535Z,51.4
2017-10-26T10:37:45.350Z,56.6
2017-10-26T10:38:46.262Z,53.1
2017-10-26T10:39:47.002Z,57.1
2017-10-26T10:40:47.748Z,52.4
2017-10-26T10:41:48.563Z,57.0
2017-10-26T10:42:49.426Z,49.3
2017-10-26T10:43:50.230Z,57.6
2017-10-26T10:44:50.961Z,58.2
2017-10-26T10:45:51.699Z,53.7
2017-10-26T10:46:52.428Z,50.7
2017-10-26T10:47:53.159Z,50.7
2017-10-26T10:48:53.966Z,54.3
2017-10-26T10:49:54.787Z,48.3
2017-10-26T10:50:55.554Z,55.2
2017-10-26T10:51:56.304Z,50.9
2017-10-26T10:52:57.114Z,48.0
2017-10-26T10:53:57.929Z,52.0
2017-10-26T10:54:58.673Z,48.0
2017-10-26T10:55:59.493Z,49.1
2017-10-26T10:57:00.342Z,56.0
2017-10-26T10:58:01.108Z,45.8
2017-10-26T10:59:01.899Z,47.9
2017-10-26T11:00:02.643Z,50.1
2017-10-26T11:01:03.381Z,49.3
2017-10-26T11:02:04.161Z,50.2
2017-10-26T11:03:04.967Z,47.7
2017-10-26T11:04:05.738Z,45.1
2017-10-26T11:05:06.542Z,48.5
2017-10-26T11:06:07.285Z,47.7
2017-10-26T11:07:08.061Z,43.0
2017-10-26T11:08:08.812Z,49.0
2017-10-26T11:09:09.558Z,49.5
2017-10-26T11:10:10.309Z,56.0
2017-10-26T11:11:11.038Z,52.0
2017-10-26T11:12:11.833Z,49.8
2017-10-26T11:13:12.579Z,45.5
2017-10-26T11:14:13.332Z,48.6
2017-10-26T11:15:14.076Z,48.3
2017-10-26T11:16:14.813Z,43.5
2017-10-26T11:17:15.593Z,48.8
2017-10-26T11:18:16.388Z,46.0
2017-10-26T11:19:17.181Z,46.5
2017-10-26T11:20:17.924Z,48.2
2017-10-26T11:21:18.733Z,44.6
2017-10-26T11:22:19.786Z,47.5
2017-10-26T11:23:20.535Z,53.2
2017-10-26T11:24:21.330Z,42.8
2017-10-26T11:25:22.148Z,43.7
2017-10-26T11:26:22.893Z,47.0
2017-10-26T11:27:23.727Z,45.3
2017-10-26T11:28:24.474Z,41.9
2017-10-26T11:29:25.215Z,50.0
2017-10-26T11:30:25.960Z,42.4
2017-10-26T11:31:26.711Z,41.9
2017-10-26T11:32:27.553Z,38.1
2017-10-26T11:33:28.292Z,38.1
2017-10-26T11:34:29.017Z,42.0
2017-10-26T11:35:29.755Z,46.6
2017-10-26T11:36:30.578Z,51.0
2017-10-26T11:37:31.407Z,41.9
2017-10-26T11:38:32.181Z,43.0
2017-10-26T11:39:32.909Z,40.5
2017-10-26T11:40:33.643Z,39.9
2017-10-26T11:41:34.389Z,39.6
2017-10-26T11:42:35.529Z,42.7
2017-10-26T11:43:36.270Z,39.0
2017-10-26T11:44:37.008Z,39.7
2017-10-26T11:45:37.751Z,36.6
2017-10-26T11:46:38.559Z,41.6
2017-10-26T11:47:39.701Z,50.6
2017-10-26T11:48:40.499Z,35.7
2017-10-26T11:49:41.245Z,44.6
2017-10-26T11:50:42.000Z,40.8
2017-10-26T11:51:42.812Z,34.9
2017-10-26T11:52:43.851Z,36.0
2017-10-26T11:53:44.580Z,37.1
2017-10-26T11:54:45.318Z,31.9
2017-10-26T11:55:46.048Z,33.2
2017-10-26T11:56:46.778Z,30.8
2017-10-26T11:57:47.583Z,31.8
2017-10-26T11:58:48.328Z,33.2
2017-10-26T11:59:49.060Z,34.9
2017-10-26T12:00:49.873Z,30.6
2017-10-26T12:01:50.651Z,30.5
2017-10-26T12:02:51.435Z,32.0
2017-10-26T12:03:52.174Z,34.0
2017-10-26T12:04:52.912Z,35.9
2017-10-26T12:05:53.658Z,38.0
2017-10-26T12:06:54.400Z,36.4
2017-10-26T12:07:55.568Z,34.1
2017-10-26T12:08:56.291Z,36.9
2017-10-26T12:09:57.033Z,36.4
2017-10-26T12:10:57.777Z,42.0
2017-10-26T12:11:58.593Z,33.7
2017-10-26T12:12:59.467Z,38.5
2017-10-26T12:14:00.274Z,38.7
2017-10-26T12:15:01.080Z,32.6
2017-10-26T12:16:01.818Z,34.0
2017-10-26T12:17:02.558Z,37.9
2017-10-26T12:18:03.393Z,32.3
2017-10-26T12:19:04.182Z,41.4
2017-10-26T12:20:04.927Z,38.4
2017-10-26T12:21:05.758Z,38.7
2017-10-26T12:22:06.556Z,38.4
2017-10-26T12:23:07.291Z,36.1
2017-10-26T12:24:08.075Z,37.3
2017-10-26T12:25:08.867Z,34.8
2017-10-26T12:26:09.609Z,35.5
2017-10-26T12:27:10.351Z,33.4
2017-10-26T12:28:11.157Z,35.1
2017-10-26T12:29:12.010Z,37.1
2017-10-26T12:30:12.800Z,35.3
2017-10-26T12:31:13.596Z,33.9
2017-10-26T12:32:14.330Z,36.3
2017-10-26T12:33:15.158Z,40.9
2017-10-26T12:34:15.971Z,36.1
2017-10-26T12:35:16.747Z,32.5
2017-10-26T12:36:17.548Z,34.8
2017-10-26T12:37:18.309Z,34.9
2017-10-26T12:38:19.122Z,36.5
2017-10-26T12:39:20.219Z,42.7
2017-10-26T12:40:21.001Z,39.0
2017-10-26T12:41:21.812Z,41.7
2017-10-26T12:42:22.608Z,36.0
2017-10-26T12:43:23.349Z,35.9
2017-10-26T12:44:24.143Z,33.6
2017-10-26T12:45:24.957Z,36.7
2017-10-26T12:46:25.700Z,35.4
2017-10-26T12:48:40.773Z,29.1
2017-10-26T12:49:41.687Z,32.7
2017-10-26T12:50:42.440Z,31.2
2017-10-26T12:51:43.243Z,31.2
2017-10-26T12:52:43.983Z,32.7
2017-10-26T12:53:44.721Z,32.9
2017-10-26T12:54:45.522Z,34.1
2017-10-26T12:55:46.309Z,32.1
2017-10-26T12:56:47.067Z,38.3
2017-10-26T12:57:47.885Z,36.3
2017-10-26T12:58:48.680Z,35.1
2017-10-26T12:59:49.519Z,37.5
2017-10-26T13:00:50.268Z,29.3
2017-10-26T13:01:51.042Z,34.2
2017-10-26T13:02:51.805Z,37.0
2017-10-26T13:03:52.588Z,35.9
2017-10-26T13:04:53.417Z,36.6
2017-10-26T13:05:54.161Z,36.0
2017-10-26T13:06:54.902Z,39.4
2017-10-26T13:07:55.628Z,31.8
2017-10-26T13:08:56.366Z,34.6
2017-10-26T13:09:57.585Z,36.8
2017-10-26T13:10:58.326Z,36.4
2017-10-26T13:11:59.052Z,31.0
2017-10-26T13:12:59.798Z,32.9